Haughton, Louisiana
Current Conditions -  °F | °C
As of 6:58 AM on Tuesday 21 Oct 2014 (Local Time) from KBAD Reporting Station
Clear Clear  
Wind Chill: 54°   Ceiling: Unl
Heat Index: 54°   Visibility: 10mi
Dew Point: 54°   Wind: 0mph
Humidity: 98%   Direction: NA
Pressure: 30.08"   Gusts: NA
Location:  32.53°N, 93.5°W
Report Text: KBAD 211158Z AUTO 00000KT 10SM CLR 12/12 A3008 RMK AO2 SLP188 T01240121 10141 20119 52015
Loading
Personal Weather Stations






























Interactive Weather Map
Tropical Storm Tracking
New forecast layout! Learn more

10-Day Weather Forecast

Advertisements
Track Severe Weather on mobile